createdAt,value
2022-08-05T00:01:48.845Z,8.90
2022-08-05T00:04:19.568Z,11.80
2022-08-05T00:06:51.829Z,9.90
2022-08-05T00:09:21.147Z,9.70
2022-08-05T00:11:55.352Z,8.60
2022-08-05T00:14:27.594Z,9.00
2022-08-05T00:16:58.839Z,10.60
2022-08-05T00:19:33.605Z,8.50
2022-08-05T00:22:14.107Z,6.90
2022-08-05T00:24:45.888Z,7.70
2022-08-05T00:27:35.731Z,8.10
2022-08-05T00:30:05.801Z,9.80
2022-08-05T00:32:40.579Z,7.80
2022-08-05T00:35:08.968Z,8.80
2022-08-05T00:37:53.547Z,8.00
2022-08-05T00:40:28.275Z,10.70
2022-08-05T00:43:02.742Z,8.60
2022-08-05T00:45:38.716Z,7.30
2022-08-05T00:48:14.417Z,7.80
2022-08-05T00:50:46.134Z,7.00
2022-08-05T00:54:00.841Z,8.10
2022-08-05T00:56:09.548Z,9.20
2022-08-05T00:58:40.459Z,9.20
2022-08-05T01:01:15.795Z,10.90
2022-08-05T01:03:56.107Z,9.30
2022-08-05T01:06:32.406Z,7.90
2022-08-05T01:09:00.664Z,7.80
2022-08-05T01:11:37.409Z,8.10
2022-08-05T01:14:15.605Z,10.90
2022-08-05T01:17:06.209Z,8.60
2022-08-05T01:20:01.428Z,7.70
2022-08-05T01:22:39.463Z,12.70
2022-08-05T01:25:43.153Z,8.30
2022-08-05T01:28:35.908Z,8.10
2022-08-05T01:31:19.371Z,9.40
2022-08-05T01:33:55.808Z,9.30
2022-08-05T01:36:30.028Z,8.60
2022-08-05T01:39:00.974Z,8.70
2022-08-05T01:41:35.504Z,10.10
2022-08-05T01:44:11.180Z,8.50
2022-08-05T01:46:46.289Z,10.00
2022-08-05T01:49:24.874Z,9.90
2022-08-05T01:52:00.140Z,10.40
2022-08-05T01:54:45.824Z,10.20
2022-08-05T01:58:29.147Z,10.90
2022-08-05T02:00:13.001Z,8.70
2022-08-05T02:02:53.693Z,7.90
2022-08-05T02:05:31.307Z,9.20
2022-08-05T02:08:03.931Z,10.50
2022-08-05T02:10:40.158Z,8.90
2022-08-05T02:13:20.548Z,8.90
2022-08-05T02:15:57.226Z,12.00
2022-08-05T02:18:34.892Z,11.60
2022-08-05T02:23:50.516Z,9.90
2022-08-05T02:26:27.691Z,9.80
2022-08-05T02:28:58.523Z,10.60
2022-08-05T02:31:34.789Z,9.40
2022-08-05T02:34:06.875Z,10.80
2022-08-05T02:36:44.092Z,9.10
2022-08-05T02:39:15.265Z,11.50
2022-08-05T02:42:00.337Z,10.80
2022-08-05T02:44:31.114Z,12.20
2022-08-05T02:47:01.113Z,9.20
2022-08-05T02:49:40.525Z,11.00
2022-08-05T02:52:29.326Z,10.50
2022-08-05T02:55:01.958Z,9.60
2022-08-05T02:58:20.224Z,9.60
2022-08-05T03:00:26.855Z,9.90
2022-08-05T03:02:58.413Z,11.50
2022-08-05T03:06:56.886Z,8.80
2022-08-05T03:08:16.554Z,10.00
2022-08-05T03:11:41.277Z,9.50
2022-08-05T03:13:51.839Z,10.70
2022-08-05T03:16:24.253Z,11.70
2022-08-05T03:18:53.400Z,8.60
2022-08-05T03:21:22.751Z,11.70
2022-08-05T03:23:58.266Z,9.40
2022-08-05T03:26:31.828Z,10.90
2022-08-05T03:29:01.424Z,9.00
2022-08-05T03:31:55.971Z,10.60
2022-08-05T03:34:19.392Z,10.80
2022-08-05T03:36:52.336Z,10.10
2022-08-05T03:39:26.744Z,9.80
2022-08-05T03:41:56.374Z,9.30
2022-08-05T03:44:25.890Z,12.20
2022-08-05T03:46:57.460Z,10.40
2022-08-05T03:49:31.129Z,11.20
2022-08-05T03:52:38.457Z,11.10
2022-08-05T03:56:05.390Z,10.20
2022-08-05T03:58:08.202Z,11.30
2022-08-05T04:00:41.930Z,11.20
2022-08-05T04:03:15.036Z,11.10
2022-08-05T04:05:59.195Z,12.50
2022-08-05T04:08:39.277Z,10.10
2022-08-05T04:11:09.896Z,10.30
2022-08-05T04:13:50.190Z,11.70
2022-08-05T04:16:25.548Z,9.90
2022-08-05T04:19:00.573Z,11.50
2022-08-05T04:22:09.086Z,11.40
2022-08-05T04:24:22.542Z,11.30
2022-08-05T04:26:51.401Z,10.00
2022-08-05T04:29:19.783Z,11.20
2022-08-05T04:31:48.497Z,9.70
2022-08-05T04:34:33.844Z,12.60
2022-08-05T04:37:03.910Z,9.60
2022-08-05T04:39:35.388Z,10.10
2022-08-05T04:42:03.961Z,10.80
2022-08-05T04:44:34.395Z,13.60
2022-08-05T04:47:08.961Z,11.10
2022-08-05T04:50:02.113Z,13.60
2022-08-05T04:52:33.278Z,10.20
2022-08-05T04:55:14.321Z,10.20
2022-08-05T04:57:48.034Z,9.90
2022-08-05T05:00:23.371Z,13.00
2022-08-05T05:02:53.161Z,10.70
2022-08-05T05:05:28.216Z,10.20
2022-08-05T05:08:02.177Z,11.40
2022-08-05T05:10:34.298Z,10.50
2022-08-05T05:13:04.099Z,11.30
2022-08-05T05:15:57.365Z,10.10
2022-08-05T05:20:59.337Z,12.50
2022-08-05T05:23:39.348Z,11.20
2022-08-05T05:26:17.114Z,10.90
2022-08-05T05:31:14.342Z,9.50
2022-08-05T05:34:01.709Z,9.00
2022-08-05T05:36:32.107Z,10.10
2022-08-05T05:39:00.434Z,9.90
2022-08-05T05:41:40.164Z,10.00
2022-08-05T05:44:15.746Z,11.20
2022-08-05T05:47:04.076Z,8.90
2022-08-05T05:49:33.495Z,10.30
2022-08-05T05:52:06.017Z,11.10
2022-08-05T05:54:50.473Z,11.50
2022-08-05T05:57:20.451Z,9.70
2022-08-05T05:59:49.332Z,10.10
2022-08-05T06:02:36.923Z,10.20
2022-08-05T06:05:16.958Z,9.60
2022-08-05T06:08:01.112Z,11.20
2022-08-05T06:10:36.197Z,12.50
2022-08-05T06:13:05.378Z,11.00
2022-08-05T06:18:31.326Z,9.60
2022-08-05T06:21:01.428Z,12.30
2022-08-05T06:23:32.066Z,11.50
2022-08-05T06:26:21.263Z,9.90
2022-08-05T06:28:54.559Z,9.70
2022-08-05T06:31:22.670Z,11.20
2022-08-05T06:34:07.716Z,11.90
2022-08-05T06:36:53.572Z,10.60
2022-08-05T06:39:28.565Z,11.70
2022-08-05T06:42:04.077Z,11.90
2022-08-05T06:44:34.782Z,10.50
2022-08-05T06:47:03.137Z,10.60
2022-08-05T06:50:00.849Z,10.10
2022-08-05T06:52:37.723Z,12.10
2022-08-05T06:55:08.067Z,9.50
2022-08-05T06:58:03.751Z,11.00
2022-08-05T07:02:54.420Z,9.00
2022-08-05T07:08:10.823Z,10.20
2022-08-05T07:10:53.467Z,12.10
2022-08-05T07:13:59.484Z,9.70
2022-08-05T07:22:28.682Z,8.60
2022-08-05T07:25:23.584Z,9.00
2022-08-05T07:27:58.240Z,9.10
2022-08-05T07:30:33.774Z,8.10
2022-08-05T07:33:05.543Z,9.90
2022-08-05T07:36:01.486Z,7.60
2022-08-05T07:38:34.292Z,9.10
2022-08-05T07:42:07.277Z,10.90
2022-08-05T07:43:56.667Z,8.00
2022-08-05T07:46:28.925Z,10.90
2022-08-05T07:49:03.564Z,11.80
2022-08-05T07:51:40.208Z,8.10
2022-08-05T07:54:10.054Z,10.00
2022-08-05T07:57:14.690Z,10.20
2022-08-05T07:59:38.244Z,8.90
2022-08-05T08:02:16.554Z,9.50
2022-08-05T08:04:48.237Z,7.70
2022-08-05T08:07:22.025Z,8.50
2022-08-05T08:09:52.918Z,8.30
2022-08-05T08:12:35.611Z,7.70
2022-08-05T08:15:15.680Z,7.90
2022-08-05T08:17:50.585Z,8.60
2022-08-05T08:21:00.287Z,9.60
2022-08-05T08:24:01.380Z,7.80
2022-08-05T08:28:36.566Z,9.40
2022-08-05T08:31:21.148Z,6.80
2022-08-05T08:33:51.694Z,9.70
2022-08-05T08:36:38.428Z,6.40
2022-08-05T08:39:15.613Z,7.30
2022-08-05T08:41:52.657Z,8.60
2022-08-05T08:45:17.714Z,8.70
2022-08-05T08:48:06.434Z,8.00
2022-08-05T08:50:31.580Z,8.00
2022-08-05T08:53:08.104Z,8.50
2022-08-05T08:56:04.843Z,8.30
2022-08-05T08:58:43.370Z,6.80
2022-08-05T09:01:18.360Z,7.80
2022-08-05T09:03:54.567Z,8.10
2022-08-05T09:06:30.705Z,6.20
2022-08-05T09:09:01.597Z,6.10
2022-08-05T09:11:52.906Z,6.10
2022-08-05T09:14:58.633Z,6.20
2022-08-05T09:17:40.441Z,8.80
2022-08-05T09:20:09.476Z,4.50
2022-08-05T09:23:09.330Z,6.90
2022-08-05T09:28:32.065Z,4.90
2022-08-05T09:32:39.967Z,4.10
2022-08-05T09:34:26.111Z,5.70
2022-08-05T09:36:59.376Z,4.70
2022-08-05T09:39:44.791Z,4.60
2022-08-05T09:42:23.532Z,3.80
2022-08-05T09:44:57.419Z,7.00
2022-08-05T09:47:36.484Z,4.90
2022-08-05T09:50:37.966Z,5.20
2022-08-05T09:53:06.715Z,5.10
2022-08-05T09:55:57.336Z,5.50
2022-08-05T09:58:26.679Z,5.50
2022-08-05T10:01:01.857Z,6.00
2022-08-05T10:03:59.659Z,5.80
2022-08-05T10:06:31.364Z,6.40
2022-08-05T10:09:24.994Z,6.80
2022-08-05T10:12:30.138Z,5.10
2022-08-05T10:15:17.137Z,4.70
2022-08-05T10:18:04.029Z,6.00
2022-08-05T10:20:44.146Z,4.90
2022-08-05T10:23:50.928Z,6.90
2022-08-05T10:26:15.048Z,4.60
2022-08-05T10:28:46.409Z,5.70
2022-08-05T10:32:52.875Z,4.90
2022-08-05T10:34:06.945Z,6.30
2022-08-05T10:36:37.686Z,5.30
2022-08-05T10:39:24.890Z,4.40
2022-08-05T10:42:11.903Z,5.90
2022-08-05T10:44:44.730Z,5.30
2022-08-05T10:47:26.805Z,3.80
2022-08-05T10:50:32.065Z,5.80
2022-08-05T10:53:04.371Z,3.30
2022-08-05T10:56:03.350Z,7.00
2022-08-05T10:58:22.736Z,5.80
2022-08-05T11:01:06.547Z,5.20
2022-08-05T11:04:12.560Z,5.10
2022-08-05T11:07:01.576Z,5.40
2022-08-05T11:10:04.110Z,5.60
2022-08-05T11:12:54.887Z,5.60
2022-08-05T11:16:00.044Z,5.00
2022-08-05T11:18:35.324Z,7.00
2022-08-05T11:21:11.678Z,4.10
2022-08-05T11:24:04.589Z,7.10
2022-08-05T11:26:43.292Z,3.40
2022-08-05T11:29:59.354Z,4.80
2022-08-05T11:32:31.933Z,4.40
2022-08-05T11:35:00.932Z,4.50
2022-08-05T11:38:26.173Z,3.20
2022-08-05T11:41:58.153Z,4.00
2022-08-05T11:44:12.770Z,4.70
2022-08-05T11:47:11.810Z,4.50
2022-08-05T11:49:43.358Z,4.50
2022-08-05T11:52:29.889Z,3.80
2022-08-05T11:55:07.344Z,3.20
2022-08-05T11:58:08.046Z,3.10
2022-08-05T12:00:31.177Z,5.10
2022-08-05T12:03:16.308Z,4.50
2022-08-05T12:06:01.764Z,4.00
2022-08-05T12:08:32.777Z,4.10
2022-08-05T12:11:05.848Z,4.20
2022-08-05T12:13:48.802Z,3.60
2022-08-05T12:16:28.475Z,2.60
2022-08-05T12:18:56.749Z,3.30
2022-08-05T12:21:30.144Z,5.20
2022-08-05T12:24:26.235Z,3.40
2022-08-05T12:26:55.124Z,2.40
2022-08-05T12:29:25.042Z,3.70
2022-08-05T12:32:02.012Z,2.90
2022-08-05T12:34:35.780Z,5.50
2022-08-05T12:37:17.614Z,3.60
2022-08-05T12:39:53.842Z,4.90
2022-08-05T12:42:25.399Z,3.50
2022-08-05T12:45:08.809Z,3.10
2022-08-05T12:47:43.460Z,4.60
2022-08-05T12:50:30.980Z,2.40
2022-08-05T12:53:02.924Z,4.90
2022-08-05T12:55:35.420Z,3.60
2022-08-05T12:58:49.608Z,3.20
2022-08-05T13:02:02.930Z,3.80
2022-08-05T13:03:42.506Z,2.60
2022-08-05T13:06:18.128Z,3.20
2022-08-05T13:08:51.965Z,3.80
2022-08-05T13:12:02.352Z,3.60
2022-08-05T13:14:20.110Z,5.10
2022-08-05T13:16:56.566Z,3.10
2022-08-05T13:19:52.489Z,3.30
2022-08-05T13:22:28.263Z,2.50
2022-08-05T13:25:19.559Z,2.20
2022-08-05T13:27:52.783Z,3.30
2022-08-05T13:30:35.041Z,3.10
2022-08-05T13:33:04.840Z,2.50
2022-08-05T13:35:43.049Z,3.80
2022-08-05T13:38:20.348Z,4.30
2022-08-05T13:41:02.872Z,3.50
2022-08-05T13:43:45.098Z,2.30
2022-08-05T13:46:30.783Z,4.00
2022-08-05T13:49:10.427Z,6.40
2022-08-05T13:51:46.111Z,6.00
2022-08-05T13:54:24.900Z,3.50
2022-08-05T13:56:53.658Z,2.20
2022-08-05T13:59:24.337Z,2.70
2022-08-05T14:01:56.532Z,3.80
2022-08-05T14:04:51.369Z,3.20
2022-08-05T14:07:26.322Z,2.60
2022-08-05T14:10:30.845Z,4.10
2022-08-05T14:12:59.995Z,4.50
2022-08-05T14:16:09.087Z,2.90
2022-08-05T14:18:23.499Z,4.50
2022-08-05T14:20:54.814Z,4.60
2022-08-05T14:23:25.841Z,3.90
2022-08-05T14:25:58.763Z,3.20
2022-08-05T14:28:29.889Z,2.30
2022-08-05T14:31:01.490Z,4.40
2022-08-05T14:33:32.509Z,3.20
2022-08-05T14:36:21.444Z,3.80
2022-08-05T14:38:51.017Z,5.10
2022-08-05T14:41:19.036Z,3.80
2022-08-05T14:43:57.799Z,3.80
2022-08-05T14:46:31.036Z,3.70
2022-08-05T14:49:06.483Z,2.60
2022-08-05T14:51:37.606Z,4.00
2022-08-05T14:54:27.918Z,4.40
2022-08-05T14:56:58.813Z,2.90
2022-08-05T14:59:29.614Z,4.60
2022-08-05T15:02:15.039Z,2.00
2022-08-05T15:04:47.885Z,3.20
2022-08-05T15:08:11.518Z,2.70
2022-08-05T15:10:09.589Z,4.90
2022-08-05T15:12:58.001Z,3.80
2022-08-05T15:15:55.762Z,5.70
2022-08-05T15:18:17.229Z,3.70
2022-08-05T15:20:46.345Z,2.70
2022-08-05T15:23:14.428Z,3.00
2022-08-05T15:25:52.060Z,4.50
2022-08-05T15:28:27.229Z,4.20
2022-08-05T15:30:57.005Z,2.70
2022-08-05T15:34:18.849Z,1.60
2022-08-05T15:36:17.707Z,4.90
2022-08-05T15:41:00.017Z,3.40
2022-08-05T15:41:57.569Z,2.90
2022-08-05T15:44:30.063Z,2.00
2022-08-05T15:47:01.658Z,3.40
2022-08-05T15:49:48.151Z,3.60
2022-08-05T15:52:51.618Z,2.00
2022-08-05T15:55:16.078Z,4.40
2022-08-05T15:57:45.103Z,4.80
2022-08-05T16:00:16.799Z,3.00
2022-08-05T16:02:44.898Z,3.00
2022-08-05T16:05:12.750Z,2.90
2022-08-05T16:07:46.614Z,3.00
2022-08-05T16:10:19.156Z,2.90
2022-08-05T16:12:55.880Z,2.50
2022-08-05T16:15:24.431Z,4.20
2022-08-05T16:18:00.960Z,3.10
2022-08-05T16:20:32.472Z,4.20
2022-08-05T16:23:01.036Z,3.20
2022-08-05T16:25:34.200Z,3.10
2022-08-05T16:28:10.240Z,1.90
2022-08-05T16:30:38.873Z,3.20
2022-08-05T16:33:09.308Z,2.00
2022-08-05T16:35:43.012Z,3.70
2022-08-05T16:38:18.331Z,3.00
2022-08-05T16:41:00.129Z,2.40
2022-08-05T16:43:32.160Z,4.10
2022-08-05T16:46:07.275Z,3.30
2022-08-05T16:48:45.328Z,3.00
2022-08-05T16:51:13.185Z,2.00
2022-08-05T16:54:04.019Z,4.30
2022-08-05T16:56:33.880Z,2.40
2022-08-05T16:59:08.055Z,5.50
2022-08-05T17:01:53.038Z,4.40
2022-08-05T17:04:27.841Z,2.70
2022-08-05T17:07:01.242Z,5.00
2022-08-05T17:09:30.352Z,3.00
2022-08-05T17:12:08.339Z,3.30
2022-08-05T17:14:39.604Z,3.90
2022-08-05T17:17:14.848Z,3.50
2022-08-05T17:19:45.717Z,5.30
2022-08-05T17:22:24.508Z,3.40
2022-08-05T17:24:58.647Z,3.90
2022-08-05T17:27:33.922Z,5.30
2022-08-05T17:30:12.185Z,4.90
2022-08-05T17:32:47.163Z,5.60
2022-08-05T17:35:20.880Z,6.20
2022-08-05T17:37:49.457Z,5.40
2022-08-05T17:40:22.473Z,7.40
2022-08-05T17:42:53.272Z,6.50
2022-08-05T17:45:29.551Z,7.00
2022-08-05T17:48:08.022Z,5.80
2022-08-05T17:50:36.204Z,6.90
2022-08-05T17:53:05.309Z,7.50
2022-08-05T17:55:37.825Z,10.00
2022-08-05T17:58:09.396Z,7.10
2022-08-05T18:00:39.885Z,8.40
2022-08-05T18:03:27.988Z,7.00
2022-08-05T18:06:06.145Z,6.60
2022-08-05T18:08:44.638Z,7.10
2022-08-05T18:11:24.579Z,6.00
2022-08-05T18:14:03.475Z,8.10
2022-08-05T18:16:33.395Z,5.50
2022-08-05T18:19:01.890Z,6.20
2022-08-05T18:22:07.356Z,8.80
2022-08-05T18:24:18.484Z,11.20
2022-08-05T18:26:48.807Z,11.00
2022-08-05T18:29:17.531Z,9.30
2022-08-05T18:32:06.089Z,12.00
2022-08-05T18:34:41.318Z,8.40
2022-08-05T18:37:12.059Z,8.30
2022-08-05T18:40:31.646Z,11.30
2022-08-05T18:42:29.507Z,8.90
2022-08-05T18:47:26.773Z,9.90
2022-08-05T18:50:15.541Z,18.00
2022-08-05T18:52:51.485Z,12.50
2022-08-05T18:55:21.637Z,15.10
2022-08-05T18:57:53.334Z,8.40
2022-08-05T19:00:27.042Z,11.80
2022-08-05T19:03:04.125Z,10.10
2022-08-05T19:06:12.348Z,9.50
2022-08-05T19:08:30.233Z,8.90
2022-08-05T19:11:02.760Z,11.90
2022-08-05T19:13:36.179Z,9.60
2022-08-05T19:16:24.877Z,9.60
2022-08-05T19:18:57.038Z,10.10
2022-08-05T19:21:27.694Z,11.90
2022-08-05T19:24:06.677Z,9.30
2022-08-05T19:26:54.147Z,7.40
2022-08-05T19:29:35.468Z,8.50
2022-08-05T19:32:11.562Z,9.30
2022-08-05T19:34:40.065Z,9.00
2022-08-05T19:37:10.089Z,9.30
2022-08-05T19:39:45.116Z,8.50
2022-08-05T19:42:35.973Z,7.20
2022-08-05T19:45:06.434Z,7.50
2022-08-05T19:47:37.201Z,8.60
2022-08-05T19:50:07.839Z,7.40
2022-08-05T19:52:39.025Z,6.60
2022-08-05T20:00:42.824Z,7.50
2022-08-05T20:03:11.285Z,7.40
2022-08-05T20:08:19.525Z,8.40
2022-08-05T20:10:49.619Z,6.10
2022-08-05T20:13:18.185Z,8.00
2022-08-05T20:16:01.403Z,8.10
2022-08-05T20:18:35.791Z,6.70
2022-08-05T20:21:06.806Z,6.60
2022-08-05T20:23:39.620Z,6.70
2022-08-05T20:26:21.169Z,7.80
2022-08-05T20:28:54.083Z,8.40
2022-08-05T20:31:36.943Z,6.20
2022-08-05T20:34:12.552Z,9.30
2022-08-05T20:36:43.836Z,5.70
2022-08-05T20:39:13.548Z,7.50
2022-08-05T20:41:47.811Z,7.20
2022-08-05T20:44:29.674Z,6.60
2022-08-05T20:47:04.712Z,7.50
2022-08-05T20:49:39.628Z,5.90
2022-08-05T20:52:10.798Z,5.90
2022-08-05T20:54:59.591Z,8.00
2022-08-05T20:57:43.631Z,6.60
2022-08-05T21:00:40.284Z,5.60
2022-08-05T21:03:06.792Z,7.10
2022-08-05T21:05:47.867Z,8.20
2022-08-05T21:08:33.100Z,6.60
2022-08-05T21:11:11.793Z,9.10
2022-08-05T21:13:56.274Z,5.70
2022-08-05T21:16:29.738Z,7.90
2022-08-05T21:19:00.845Z,8.80
2022-08-05T21:21:39.119Z,7.90
2022-08-05T21:24:12.889Z,7.80
2022-08-05T21:26:41.561Z,8.40
2022-08-05T21:29:12.540Z,6.70
2022-08-05T21:31:44.481Z,6.50
2022-08-05T21:34:16.032Z,9.50
2022-08-05T21:36:46.560Z,8.90
2022-08-05T21:39:26.630Z,7.10
2022-08-05T21:42:01.075Z,7.80
2022-08-05T21:44:31.029Z,6.00
2022-08-05T21:47:00.365Z,7.50
2022-08-05T21:49:58.707Z,8.60
2022-08-05T21:52:27.749Z,8.30
2022-08-05T21:55:06.044Z,6.50
2022-08-05T21:57:42.505Z,8.40
2022-08-05T22:00:12.308Z,7.10
2022-08-05T22:02:46.783Z,10.50
2022-08-05T22:05:16.817Z,7.00
2022-08-05T22:07:59.190Z,6.60
2022-08-05T22:10:29.415Z,6.20
2022-08-05T22:14:05.203Z,9.90
2022-08-05T22:15:56.614Z,6.60
2022-08-05T22:18:32.732Z,6.60
2022-08-05T22:21:04.250Z,8.50
2022-08-05T22:24:02.383Z,8.60
2022-08-05T22:26:50.741Z,8.60
2022-08-05T22:29:26.541Z,8.80
2022-08-05T22:31:59.445Z,9.20
2022-08-05T22:34:28.812Z,7.00
2022-08-05T22:36:58.520Z,8.30
2022-08-05T22:39:33.362Z,6.60
2022-08-05T22:42:12.138Z,10.30
2022-08-05T22:44:48.385Z,8.70
2022-08-05T22:47:30.432Z,8.00
2022-08-05T22:50:19.514Z,7.30
2022-08-05T22:52:52.755Z,7.70
2022-08-05T22:55:22.134Z,7.90
2022-08-05T22:57:55.000Z,6.50
2022-08-05T23:00:24.496Z,7.60
2022-08-05T23:02:54.986Z,9.10
2022-08-05T23:05:23.296Z,6.30
2022-08-05T23:07:52.622Z,7.40
2022-08-05T23:10:23.408Z,9.10
2022-08-05T23:12:54.942Z,9.70
2022-08-05T23:15:29.351Z,7.70
2022-08-05T23:18:11.314Z,6.90
2022-08-05T23:20:39.984Z,9.10
2022-08-05T23:23:11.386Z,8.00
2022-08-05T23:25:54.968Z,7.20
2022-08-05T23:28:29.148Z,8.50
2022-08-05T23:31:16.280Z,7.70
2022-08-05T23:34:04.732Z,10.30
2022-08-05T23:36:40.125Z,10.10
2022-08-05T23:39:16.589Z,8.10
2022-08-05T23:41:56.276Z,9.90
2022-08-05T23:44:27.908Z,8.10
2022-08-05T23:47:02.505Z,8.00
2022-08-05T23:49:47.342Z,6.90
2022-08-05T23:52:29.372Z,9.50
2022-08-05T23:55:08.858Z,8.80
2022-08-05T23:57:37.270Z,6.80
